createdAt,value
2022-07-28T00:02:23.565Z,96.10
2022-07-28T00:04:53.899Z,96.10
2022-07-28T00:07:24.962Z,96.70
2022-07-28T00:09:58.238Z,96.60
2022-07-28T00:12:28.478Z,96.60
2022-07-28T00:14:56.960Z,96.90
2022-07-28T00:17:33.719Z,97.00
2022-07-28T00:20:04.124Z,97.10
2022-07-28T00:22:40.494Z,97.10
2022-07-28T00:25:10.593Z,97.40
2022-07-28T00:27:41.410Z,97.80
2022-07-28T00:30:10.172Z,97.90
2022-07-28T00:32:43.365Z,98.30
2022-07-28T00:35:13.243Z,98.60
2022-07-28T00:37:51.885Z,99.20
2022-07-28T00:40:23.033Z,99.90
2022-07-28T00:42:52.783Z,99.90
2022-07-28T00:45:24.914Z,99.90
2022-07-28T00:47:54.163Z,99.90
2022-07-28T00:50:25.845Z,99.90
2022-07-28T00:52:57.208Z,99.90
2022-07-28T00:55:29.664Z,99.90
2022-07-28T00:58:07.966Z,99.90
2022-07-28T01:00:39.508Z,99.90
2022-07-28T01:03:16.945Z,99.90
2022-07-28T01:06:00.681Z,99.90
2022-07-28T01:08:37.866Z,99.90
2022-07-28T01:11:53.625Z,99.90
2022-07-28T01:14:53.958Z,99.90
2022-07-28T01:18:05.015Z,99.90
2022-07-28T01:21:04.280Z,99.90
2022-07-28T01:24:04.631Z,99.90
2022-07-28T01:27:12.239Z,99.90
2022-07-28T01:30:15.875Z,99.90
2022-07-28T01:32:55.145Z,99.90
2022-07-28T01:35:34.061Z,99.90
2022-07-28T01:38:25.699Z,99.90
2022-07-28T01:41:01.959Z,99.90
2022-07-28T01:43:44.409Z,99.90
2022-07-28T01:46:15.046Z,99.90
2022-07-28T01:48:46.432Z,99.90
2022-07-28T01:51:16.454Z,99.90
2022-07-28T01:53:46.352Z,99.90
2022-07-28T01:56:28.164Z,99.90
2022-07-28T01:59:03.621Z,99.90
2022-07-28T02:01:35.050Z,99.90
2022-07-28T02:04:05.609Z,99.90
2022-07-28T02:06:38.141Z,99.90
2022-07-28T02:09:08.928Z,99.90
2022-07-28T02:11:42.617Z,99.90
2022-07-28T02:14:23.679Z,99.90
2022-07-28T02:17:02.923Z,99.90
2022-07-28T02:19:39.626Z,99.90
2022-07-28T02:22:10.076Z,99.90
2022-07-28T02:24:40.525Z,99.90
2022-07-28T02:27:35.003Z,99.90
2022-07-28T02:30:32.453Z,99.90
2022-07-28T02:33:13.409Z,99.90
2022-07-28T02:35:59.353Z,99.90
2022-07-28T02:38:44.047Z,99.90
2022-07-28T02:41:20.354Z,99.90
2022-07-28T02:44:01.684Z,99.90
2022-07-28T02:46:43.275Z,99.90
2022-07-28T02:49:39.226Z,99.90
2022-07-28T02:52:19.913Z,99.90
2022-07-28T02:54:56.209Z,99.90
2022-07-28T02:57:25.886Z,99.90
2022-07-28T03:00:01.841Z,99.90
2022-07-28T03:02:31.459Z,99.90
2022-07-28T03:05:09.020Z,99.90
2022-07-28T03:07:50.351Z,99.90
2022-07-28T03:10:34.835Z,99.90
2022-07-28T03:13:13.678Z,99.90
2022-07-28T03:15:43.039Z,99.90
2022-07-28T03:18:13.611Z,99.90
2022-07-28T03:20:41.446Z,99.90
2022-07-28T03:23:09.524Z,99.90
2022-07-28T03:25:51.258Z,99.90
2022-07-28T03:28:24.537Z,99.90
2022-07-28T03:31:03.310Z,99.90
2022-07-28T03:33:35.116Z,99.90
2022-07-28T03:36:21.893Z,99.90
2022-07-28T03:38:58.955Z,99.90
2022-07-28T03:41:28.357Z,99.90
2022-07-28T03:44:08.854Z,99.90
2022-07-28T03:46:45.385Z,99.90
2022-07-28T03:49:21.919Z,99.90
2022-07-28T03:51:50.816Z,99.90
2022-07-28T03:54:21.810Z,99.90
2022-07-28T03:56:49.635Z,99.90
2022-07-28T03:59:17.836Z,99.90
2022-07-28T04:01:47.416Z,99.90
2022-07-28T04:04:15.697Z,99.90
2022-07-28T04:06:47.017Z,99.90
2022-07-28T04:09:17.594Z,99.90
2022-07-28T04:11:46.455Z,99.90
2022-07-28T04:14:17.072Z,99.90
2022-07-28T04:16:46.329Z,99.90
2022-07-28T04:19:14.640Z,99.90
2022-07-28T04:21:44.737Z,99.90
2022-07-28T04:24:21.181Z,99.90
2022-07-28T04:26:51.129Z,99.90
2022-07-28T04:29:27.173Z,99.90
2022-07-28T04:31:56.322Z,99.90
2022-07-28T04:34:24.627Z,99.90
2022-07-28T04:36:51.298Z,99.90
2022-07-28T04:39:26.714Z,99.90
2022-07-28T04:41:54.690Z,99.90
2022-07-28T04:44:22.462Z,99.90
2022-07-28T04:46:59.030Z,99.90
2022-07-28T04:49:28.442Z,99.90
2022-07-28T04:52:00.407Z,99.90
2022-07-28T04:54:36.347Z,99.90
2022-07-28T04:57:06.253Z,99.90
2022-07-28T04:59:40.580Z,99.90
2022-07-28T05:02:09.175Z,99.90
2022-07-28T05:04:39.206Z,99.90
2022-07-28T05:07:07.659Z,99.90
2022-07-28T05:09:36.953Z,99.90
2022-07-28T05:12:03.840Z,99.90
2022-07-28T05:14:32.645Z,99.90
2022-07-28T05:17:03.888Z,99.90
2022-07-28T05:19:33.145Z,99.90
2022-07-28T05:22:03.638Z,99.90
2022-07-28T05:24:33.914Z,99.90
2022-07-28T05:27:02.080Z,99.90
2022-07-28T05:29:37.634Z,99.90
2022-07-28T05:32:18.462Z,99.90
2022-07-28T05:34:47.556Z,99.90
2022-07-28T05:37:15.357Z,99.90
2022-07-28T05:39:52.322Z,99.90
2022-07-28T05:42:22.654Z,99.90
2022-07-28T05:44:58.775Z,99.90
2022-07-28T05:47:29.034Z,99.90
2022-07-28T05:50:03.109Z,99.90
2022-07-28T05:52:32.705Z,99.90
2022-07-28T05:55:00.243Z,99.90
2022-07-28T05:57:28.115Z,99.90
2022-07-28T05:59:56.932Z,99.90
2022-07-28T06:02:25.934Z,99.90
2022-07-28T06:04:58.812Z,99.90
2022-07-28T06:07:43.616Z,99.90
2022-07-28T06:10:25.395Z,99.90
2022-07-28T06:13:06.894Z,99.90
2022-07-28T06:15:38.398Z,99.90
2022-07-28T06:18:08.098Z,99.90
2022-07-28T06:20:38.251Z,99.90
2022-07-28T06:23:15.047Z,99.90
2022-07-28T06:25:51.907Z,99.90
2022-07-28T06:28:22.942Z,99.90
2022-07-28T06:30:53.239Z,99.90
2022-07-28T06:33:21.329Z,99.90
2022-07-28T06:35:57.075Z,99.90
2022-07-28T06:38:26.637Z,99.90
2022-07-28T06:40:57.522Z,99.90
2022-07-28T06:43:25.947Z,99.90
2022-07-28T06:45:54.852Z,99.90
2022-07-28T06:48:25.863Z,99.90
2022-07-28T06:51:04.125Z,99.90
2022-07-28T06:53:33.596Z,99.90
2022-07-28T06:56:04.883Z,99.90
2022-07-28T06:58:33.698Z,99.90
2022-07-28T07:01:03.841Z,99.90
2022-07-28T07:03:37.472Z,99.90
2022-07-28T07:06:05.358Z,99.90
2022-07-28T07:08:43.311Z,99.90
2022-07-28T07:11:12.639Z,99.90
2022-07-28T07:13:54.541Z,99.90
2022-07-28T07:16:26.781Z,99.90
2022-07-28T07:18:55.496Z,99.90
2022-07-28T07:21:27.665Z,99.90
2022-07-28T07:23:55.016Z,99.90
2022-07-28T07:26:22.005Z,99.90
2022-07-28T07:28:50.495Z,99.90
2022-07-28T07:31:21.750Z,99.90
2022-07-28T07:33:52.005Z,99.90
2022-07-28T07:36:21.190Z,99.90
2022-07-28T07:38:49.192Z,99.90
2022-07-28T07:41:21.560Z,99.90
2022-07-28T07:43:52.039Z,99.90
2022-07-28T07:46:28.697Z,99.90
2022-07-28T07:48:58.153Z,99.90
2022-07-28T07:51:27.093Z,99.90
2022-07-28T07:53:58.195Z,99.90
2022-07-28T07:56:28.444Z,99.90
2022-07-28T07:58:57.675Z,99.90
2022-07-28T08:01:30.056Z,99.90
2022-07-28T08:04:00.204Z,99.90
2022-07-28T08:06:30.589Z,99.90
2022-07-28T08:08:59.213Z,99.90
2022-07-28T08:11:28.126Z,99.90
2022-07-28T08:13:59.272Z,99.90
2022-07-28T08:16:28.053Z,99.90
2022-07-28T08:18:55.596Z,99.90
2022-07-28T08:21:27.126Z,99.90
2022-07-28T08:23:58.411Z,99.90
2022-07-28T08:26:26.927Z,99.90
2022-07-28T08:28:57.330Z,99.90
2022-07-28T08:31:25.786Z,99.90
2022-07-28T08:34:03.948Z,99.90
2022-07-28T08:37:02.390Z,99.90
2022-07-28T08:39:32.812Z,99.90
2022-07-28T08:42:25.942Z,99.90
2022-07-28T08:45:04.583Z,99.90
2022-07-28T08:47:58.647Z,99.90
2022-07-28T08:50:39.310Z,99.90
2022-07-28T08:53:13.359Z,99.90
2022-07-28T08:55:40.571Z,99.90
2022-07-28T08:58:13.847Z,99.90
2022-07-28T09:00:41.735Z,99.90
2022-07-28T09:03:09.109Z,99.90
2022-07-28T09:05:43.045Z,99.90
2022-07-28T09:08:15.230Z,99.90
2022-07-28T09:10:50.200Z,99.50
2022-07-28T09:13:19.442Z,99.60
2022-07-28T09:15:48.903Z,99.50
2022-07-28T09:18:25.680Z,99.60
2022-07-28T09:21:00.012Z,99.40
2022-07-28T09:23:50.545Z,98.40
2022-07-28T09:26:20.108Z,98.40
2022-07-28T09:28:51.624Z,97.70
2022-07-28T09:31:19.735Z,97.80
2022-07-28T09:34:04.423Z,97.10
2022-07-28T09:36:41.448Z,97.20
2022-07-28T09:39:10.087Z,97.70
2022-07-28T09:41:48.861Z,96.90
2022-07-28T09:44:31.639Z,96.20
2022-07-28T09:46:59.716Z,96.80
2022-07-28T09:49:41.903Z,95.90
2022-07-28T09:52:14.542Z,96.40
2022-07-28T09:55:16.557Z,95.50
2022-07-28T09:57:52.781Z,95.00
2022-07-28T10:00:34.108Z,95.50
2022-07-28T10:03:02.867Z,95.00
2022-07-28T10:05:53.714Z,94.40
2022-07-28T10:08:45.548Z,94.10
2022-07-28T10:11:26.598Z,94.00
2022-07-28T10:14:07.408Z,94.50
2022-07-28T10:16:46.188Z,93.40
2022-07-28T10:19:16.480Z,93.20
2022-07-28T10:21:52.997Z,93.00
2022-07-28T10:24:27.916Z,93.00
2022-07-28T10:27:10.570Z,93.30
2022-07-28T10:29:51.993Z,92.80
2022-07-28T10:32:20.289Z,93.00
2022-07-28T10:35:02.876Z,93.10
2022-07-28T10:37:33.450Z,93.10
2022-07-28T10:40:10.628Z,92.10
2022-07-28T10:42:42.178Z,92.40
2022-07-28T10:45:14.381Z,92.50
2022-07-28T10:48:00.108Z,92.00
2022-07-28T10:50:28.653Z,91.90
2022-07-28T10:53:05.624Z,91.80
2022-07-28T10:56:05.664Z,92.00
2022-07-28T10:59:01.472Z,92.00
2022-07-28T11:01:53.156Z,90.30
2022-07-28T11:04:54.762Z,90.40
2022-07-28T11:07:31.575Z,89.60
2022-07-28T11:10:18.364Z,90.00
2022-07-28T11:12:48.897Z,89.40
2022-07-28T11:15:50.883Z,89.10
2022-07-28T11:18:24.703Z,89.00
2022-07-28T11:21:03.278Z,88.60
2022-07-28T11:23:59.296Z,88.90
2022-07-28T11:26:31.298Z,88.30
2022-07-28T11:29:15.976Z,88.40
2022-07-28T11:31:55.875Z,88.40
2022-07-28T11:34:27.655Z,88.90
2022-07-28T11:37:10.075Z,89.00
2022-07-28T11:39:44.028Z,88.70
2022-07-28T11:42:31.108Z,86.40
2022-07-28T11:45:20.492Z,84.90
2022-07-28T11:48:15.392Z,83.70
2022-07-28T11:51:06.635Z,84.10
2022-07-28T11:53:47.898Z,84.60
2022-07-28T11:56:31.972Z,84.60
2022-07-28T11:59:06.106Z,83.30
2022-07-28T12:01:37.069Z,84.00
2022-07-28T12:04:13.463Z,83.70
2022-07-28T12:06:51.361Z,82.40
2022-07-28T12:09:26.250Z,83.00
2022-07-28T12:11:56.650Z,83.00
2022-07-28T12:14:24.131Z,82.20
2022-07-28T12:16:52.762Z,78.90
2022-07-28T12:19:22.651Z,79.60
2022-07-28T12:22:00.803Z,78.90
2022-07-28T12:24:30.927Z,77.00
2022-07-28T12:27:08.299Z,76.00
2022-07-28T12:29:38.568Z,74.70
2022-07-28T12:32:15.726Z,72.50
2022-07-28T12:34:48.387Z,70.50
2022-07-28T12:37:16.717Z,69.30
2022-07-28T12:39:52.539Z,68.00
2022-07-28T12:42:20.630Z,65.90
2022-07-28T12:44:59.689Z,64.80
2022-07-28T12:47:27.155Z,62.60
2022-07-28T12:50:19.598Z,62.60
2022-07-28T12:53:07.777Z,62.50
2022-07-28T12:55:38.111Z,61.70
2022-07-28T12:58:27.384Z,59.30
2022-07-28T13:01:05.614Z,59.70
2022-07-28T13:03:34.675Z,58.40
2022-07-28T13:06:22.519Z,58.30
2022-07-28T13:08:55.674Z,57.40
2022-07-28T13:11:47.656Z,57.90
2022-07-28T13:14:16.835Z,56.70
2022-07-28T13:17:02.513Z,55.90
2022-07-28T13:19:32.584Z,55.50
2022-07-28T13:22:08.809Z,55.20
2022-07-28T13:24:46.021Z,53.90
2022-07-28T13:27:16.226Z,55.10
2022-07-28T13:29:52.322Z,53.50
2022-07-28T13:32:24.256Z,53.40
2022-07-28T13:35:02.013Z,52.00
2022-07-28T13:37:40.310Z,52.40
2022-07-28T13:40:12.520Z,51.60
2022-07-28T13:42:52.729Z,51.90
2022-07-28T13:45:23.704Z,51.00
2022-07-28T13:47:53.490Z,51.10
2022-07-28T13:50:27.723Z,50.00
2022-07-28T13:53:03.045Z,50.40
2022-07-28T13:55:32.995Z,50.50
2022-07-28T13:58:04.327Z,52.30
2022-07-28T14:00:43.687Z,50.10
2022-07-28T14:03:13.586Z,50.40
2022-07-28T14:05:42.700Z,49.60
2022-07-28T14:08:12.249Z,50.00
2022-07-28T14:10:49.111Z,48.40
2022-07-28T14:13:21.675Z,49.10
2022-07-28T14:15:50.665Z,48.70
2022-07-28T14:18:30.440Z,48.90
2022-07-28T14:21:00.121Z,49.30
2022-07-28T14:23:27.943Z,50.20
2022-07-28T14:26:18.356Z,50.40
2022-07-28T14:28:50.203Z,51.10
2022-07-28T14:31:20.582Z,51.30
2022-07-28T14:33:54.678Z,51.30
2022-07-28T14:36:25.164Z,51.90
2022-07-28T14:38:56.781Z,52.60
2022-07-28T14:41:33.081Z,52.00
2022-07-28T14:44:01.810Z,51.60
2022-07-28T14:46:30.587Z,51.20
2022-07-28T14:49:08.003Z,50.40
2022-07-28T14:51:39.382Z,50.40
2022-07-28T14:54:16.386Z,50.00
2022-07-28T14:56:46.660Z,49.40
2022-07-28T14:59:16.359Z,49.90
2022-07-28T15:01:44.432Z,49.50
2022-07-28T15:04:21.031Z,49.60
2022-07-28T15:06:50.312Z,50.10
2022-07-28T15:09:20.773Z,50.00
2022-07-28T15:11:47.554Z,49.70
2022-07-28T15:14:22.382Z,49.40
2022-07-28T15:16:50.741Z,49.80
2022-07-28T15:19:30.243Z,49.10
2022-07-28T15:22:00.127Z,49.30
2022-07-28T15:24:32.332Z,49.00
2022-07-28T15:26:59.944Z,48.50
2022-07-28T15:29:27.982Z,48.60
2022-07-28T15:32:13.129Z,48.90
2022-07-28T15:34:51.120Z,49.10
2022-07-28T15:37:21.705Z,48.80
2022-07-28T15:39:58.485Z,48.10
2022-07-28T15:42:26.587Z,48.40
2022-07-28T15:45:03.074Z,48.10
2022-07-28T15:47:34.713Z,48.30
2022-07-28T15:50:04.350Z,48.30
2022-07-28T15:52:36.478Z,48.30
2022-07-28T15:55:06.776Z,48.10
2022-07-28T15:57:37.880Z,47.30
2022-07-28T16:00:15.712Z,48.20
2022-07-28T16:02:43.661Z,48.00
2022-07-28T16:05:14.024Z,47.50
2022-07-28T16:07:45.236Z,47.60
2022-07-28T16:10:22.105Z,47.10
2022-07-28T16:12:59.019Z,47.70
2022-07-28T16:15:29.591Z,47.40
2022-07-28T16:18:05.807Z,47.40
2022-07-28T16:20:33.850Z,46.50
2022-07-28T16:23:03.252Z,47.10
2022-07-28T16:25:33.445Z,47.50
2022-07-28T16:28:03.642Z,47.30
2022-07-28T16:30:33.726Z,47.00
2022-07-28T16:33:02.469Z,47.20
2022-07-28T16:35:34.495Z,47.30
2022-07-28T16:38:07.152Z,47.90
2022-07-28T16:40:37.036Z,47.60
2022-07-28T16:43:06.245Z,47.90
2022-07-28T16:45:43.060Z,47.90
2022-07-28T16:48:13.855Z,48.10
2022-07-28T16:50:43.514Z,48.00
2022-07-28T16:53:17.278Z,46.80
2022-07-28T16:55:48.010Z,47.80
2022-07-28T16:58:17.736Z,47.00
2022-07-28T17:00:49.808Z,47.30
2022-07-28T17:03:19.559Z,47.80
2022-07-28T17:05:48.774Z,48.10
2022-07-28T17:08:21.345Z,48.40
2022-07-28T17:10:48.099Z,48.40
2022-07-28T17:13:16.470Z,48.20
2022-07-28T17:15:45.896Z,48.20
2022-07-28T17:18:18.560Z,48.00
2022-07-28T17:20:59.000Z,47.70
2022-07-28T17:23:36.382Z,47.90
2022-07-28T17:28:53.292Z,47.90
2022-07-28T17:31:24.702Z,48.00
2022-07-28T17:33:53.772Z,48.20
2022-07-28T17:36:21.794Z,48.30
2022-07-28T17:38:59.509Z,48.60
2022-07-28T17:41:30.205Z,48.90
2022-07-28T17:44:05.113Z,48.80
2022-07-28T17:46:44.889Z,48.90
2022-07-28T17:49:13.369Z,48.80
2022-07-28T17:51:45.455Z,48.90
2022-07-28T17:54:13.683Z,49.00
2022-07-28T17:56:43.931Z,49.20
2022-07-28T17:59:15.329Z,49.50
2022-07-28T18:01:45.574Z,49.40
2022-07-28T18:04:13.438Z,49.30
2022-07-28T18:06:44.252Z,49.50
2022-07-28T18:09:12.607Z,49.60
2022-07-28T18:11:57.304Z,49.90
2022-07-28T18:14:29.340Z,49.70
2022-07-28T18:17:00.405Z,50.00
2022-07-28T18:19:28.702Z,50.10
2022-07-28T18:21:58.341Z,50.10
2022-07-28T18:24:27.193Z,50.30
2022-07-28T18:26:58.250Z,50.50
2022-07-28T18:29:25.340Z,50.60
2022-07-28T18:32:11.838Z,50.80
2022-07-28T18:34:41.361Z,50.70
2022-07-28T18:37:12.201Z,50.80
2022-07-28T18:39:41.732Z,51.00
2022-07-28T18:42:12.165Z,51.30
2022-07-28T18:44:41.486Z,51.30
2022-07-28T18:47:09.261Z,51.40
2022-07-28T18:49:45.743Z,51.60
2022-07-28T18:52:14.083Z,51.90
2022-07-28T18:54:41.180Z,52.40
2022-07-28T18:57:09.045Z,52.40
2022-07-28T18:59:41.522Z,52.50
2022-07-28T19:02:14.044Z,52.60
2022-07-28T19:04:43.621Z,52.90
2022-07-28T19:07:16.784Z,53.10
2022-07-28T19:09:44.088Z,53.20
2022-07-28T19:12:12.525Z,53.40
2022-07-28T19:14:40.580Z,53.60
2022-07-28T19:17:12.430Z,54.10
2022-07-28T19:19:41.720Z,54.50
2022-07-28T19:22:10.341Z,54.60
2022-07-28T19:24:39.370Z,54.90
2022-07-28T19:27:15.381Z,55.20
2022-07-28T19:29:45.578Z,55.50
2022-07-28T19:32:12.521Z,55.80
2022-07-28T19:34:48.913Z,56.00
2022-07-28T19:37:21.115Z,56.10
2022-07-28T19:39:50.856Z,56.10
2022-07-28T19:42:27.403Z,56.20
2022-07-28T19:44:56.089Z,56.70
2022-07-28T19:47:31.165Z,56.60
2022-07-28T19:50:01.291Z,57.00
2022-07-28T19:52:32.848Z,57.60
2022-07-28T19:55:04.379Z,57.60
2022-07-28T19:57:41.919Z,57.70
2022-07-28T20:00:19.745Z,58.10
2022-07-28T20:02:56.259Z,58.30
2022-07-28T20:05:32.381Z,58.60
2022-07-28T20:08:00.911Z,58.90
2022-07-28T20:10:31.026Z,59.00
2022-07-28T20:13:09.533Z,59.20
2022-07-28T20:15:43.465Z,59.40
2022-07-28T20:18:21.169Z,60.00
2022-07-28T20:20:49.169Z,59.90
2022-07-28T20:23:19.124Z,60.10
2022-07-28T20:25:48.598Z,60.10
2022-07-28T20:28:17.370Z,60.20
2022-07-28T20:30:47.879Z,60.30
2022-07-28T20:33:16.236Z,60.50
2022-07-28T20:35:45.058Z,60.60
2022-07-28T20:38:16.594Z,60.80
2022-07-28T20:40:46.432Z,60.90
2022-07-28T20:43:15.999Z,61.00
2022-07-28T20:45:49.618Z,61.40
2022-07-28T20:48:26.886Z,62.00
2022-07-28T20:50:57.136Z,62.00
2022-07-28T20:53:26.703Z,62.20
2022-07-28T20:55:55.811Z,62.30
2022-07-28T20:58:27.255Z,62.20
2022-07-28T21:00:57.281Z,62.20
2022-07-28T21:03:25.217Z,62.30
2022-07-28T21:05:54.664Z,62.60
2022-07-28T21:08:24.257Z,62.50
2022-07-28T21:10:55.323Z,63.10
2022-07-28T21:13:31.508Z,62.90
2022-07-28T21:16:01.726Z,63.30
2022-07-28T21:18:30.470Z,63.80
2022-07-28T21:21:01.469Z,63.50
2022-07-28T21:23:28.535Z,63.90
2022-07-28T21:25:56.619Z,64.10
2022-07-28T21:28:25.845Z,64.10
2022-07-28T21:30:54.645Z,64.40
2022-07-28T21:33:29.802Z,64.70
2022-07-28T21:36:06.796Z,64.80
2022-07-28T21:38:35.753Z,65.00
2022-07-28T21:41:03.648Z,65.00
2022-07-28T21:43:32.678Z,65.20
2022-07-28T21:46:08.603Z,65.70
2022-07-28T21:48:44.962Z,66.10
2022-07-28T21:51:18.926Z,66.40
2022-07-28T21:53:51.613Z,66.60
2022-07-28T21:56:27.539Z,66.60
2022-07-28T21:58:55.657Z,66.90
2022-07-28T22:01:25.986Z,66.90
2022-07-28T22:03:53.141Z,66.90
2022-07-28T22:06:20.792Z,67.20
2022-07-28T22:08:49.135Z,67.40
2022-07-28T22:11:16.533Z,67.50
2022-07-28T22:13:44.478Z,67.60
2022-07-28T22:16:12.708Z,68.20
2022-07-28T22:18:40.530Z,68.20
2022-07-28T22:21:10.699Z,68.50
2022-07-28T22:23:40.751Z,69.30
2022-07-28T22:26:20.598Z,68.90
2022-07-28T22:28:49.745Z,69.30
2022-07-28T22:31:18.015Z,69.20
2022-07-28T22:33:49.169Z,70.20
2022-07-28T22:36:19.351Z,70.40
2022-07-28T22:38:47.392Z,69.90
2022-07-28T22:41:19.007Z,70.60
2022-07-28T22:43:52.251Z,70.50
2022-07-28T22:46:22.487Z,71.20
2022-07-28T22:48:59.343Z,71.30
2022-07-28T22:51:29.824Z,71.90
2022-07-28T22:53:58.504Z,71.70
2022-07-28T22:56:36.399Z,71.90
2022-07-28T22:59:05.203Z,73.30
2022-07-28T23:01:34.927Z,72.80
2022-07-28T23:04:04.754Z,73.10
2022-07-28T23:06:34.161Z,73.80
2022-07-28T23:09:06.532Z,74.20
2022-07-28T23:11:37.248Z,75.10
2022-07-28T23:14:05.275Z,74.90
2022-07-28T23:16:37.189Z,75.00
2022-07-28T23:19:07.777Z,75.70
2022-07-28T23:21:39.672Z,75.60
2022-07-28T23:24:07.140Z,76.20
2022-07-28T23:26:36.599Z,76.60
2022-07-28T23:29:04.535Z,77.00
2022-07-28T23:31:40.467Z,77.10
2022-07-28T23:34:09.833Z,77.80
2022-07-28T23:36:40.620Z,78.70
2022-07-28T23:39:08.765Z,79.10
2022-07-28T23:41:36.789Z,80.00
2022-07-28T23:44:06.950Z,81.10
2022-07-28T23:46:43.604Z,80.90
2022-07-28T23:49:13.388Z,82.10
2022-07-28T23:51:47.472Z,81.80
2022-07-28T23:54:26.514Z,82.70
2022-07-28T23:56:55.051Z,83.40
2022-07-28T23:59:31.051Z,84.40
